createdAt,value
2023-05-03T20:18:21.641Z,12.50
2023-05-03T20:20:49.144Z,13.03
2023-05-03T20:23:17.525Z,13.49
2023-05-03T20:25:47.594Z,13.75
2023-05-03T20:28:15.155Z,13.81
2023-05-03T20:30:42.349Z,13.60
2023-05-03T20:33:10.320Z,13.53
2023-05-03T20:35:38.549Z,13.35
2023-05-03T20:38:05.943Z,13.23
2023-05-03T20:40:34.787Z,13.15
2023-05-03T20:43:01.928Z,13.45
2023-05-03T20:45:29.946Z,13.82
2023-05-03T20:47:57.601Z,13.95
2023-05-03T20:50:24.884Z,13.96
2023-05-03T20:52:52.492Z,13.85
2023-05-03T20:55:19.750Z,13.62
2023-05-03T20:57:47.196Z,13.41
2023-05-03T21:00:17.866Z,13.26
2023-05-03T21:02:45.329Z,13.15
2023-05-03T21:05:13.119Z,13.50
2023-05-03T21:07:40.235Z,13.87
2023-05-03T21:10:08.115Z,13.90
2023-05-03T21:12:35.317Z,13.86
2023-05-03T21:15:02.555Z,13.74
2023-05-03T21:17:29.953Z,13.58
2023-05-03T21:19:57.254Z,13.45
2023-05-03T21:22:24.841Z,13.33
2023-05-03T21:24:51.803Z,13.19
2023-05-03T21:27:20.568Z,13.44
2023-05-03T21:29:48.280Z,13.99
2023-05-03T21:32:15.446Z,14.12
2023-05-03T21:34:42.575Z,14.05
2023-05-03T21:37:09.789Z,13.88
2023-05-03T21:39:37.001Z,13.69
2023-05-03T21:42:04.339Z,13.49
2023-05-03T21:44:32.145Z,13.29
2023-05-03T21:46:59.571Z,13.17
2023-05-03T21:49:26.819Z,13.02
2023-05-03T21:51:54.258Z,13.30
2023-05-03T21:54:21.604Z,13.63
2023-05-03T21:56:48.797Z,13.87
2023-05-03T21:59:16.185Z,13.91
2023-05-03T22:01:43.693Z,13.66
2023-05-03T22:04:11.710Z,13.43
2023-05-03T22:06:38.798Z,13.22
2023-05-03T22:09:07.105Z,13.06
2023-05-03T22:11:34.653Z,12.95
2023-05-03T22:14:07.887Z,12.87
2023-05-03T22:16:38.044Z,12.80
2023-05-03T22:19:05.800Z,13.12
2023-05-03T22:21:32.984Z,13.55
2023-05-03T22:24:00.271Z,13.86
2023-05-03T22:26:28.092Z,13.68
2023-05-03T22:28:55.264Z,13.48
2023-05-03T22:31:22.689Z,13.25
2023-05-03T22:33:49.967Z,12.99
2023-05-03T22:36:17.011Z,12.74
2023-05-03T22:38:44.361Z,12.62
2023-05-03T22:41:12.280Z,12.46
2023-05-03T22:43:39.456Z,12.83
2023-05-03T22:46:06.761Z,13.24
2023-05-03T22:48:34.224Z,13.39
2023-05-03T22:51:01.570Z,13.37
2023-05-03T22:53:28.667Z,13.21
2023-05-03T22:56:01.795Z,13.01
2023-05-03T22:58:29.066Z,12.74
2023-05-03T23:00:56.807Z,12.60
2023-05-03T23:03:24.250Z,12.39
2023-05-03T23:05:53.466Z,12.26
2023-05-03T23:08:21.475Z,12.68
2023-05-03T23:10:48.643Z,12.96
2023-05-03T23:13:16.037Z,13.23
2023-05-03T23:15:43.291Z,13.08
2023-05-03T23:18:10.288Z,12.82
2023-05-03T23:20:37.862Z,12.62
2023-05-03T23:23:05.100Z,12.45
2023-05-03T23:25:32.157Z,12.17
2023-05-03T23:28:00.224Z,11.91
2023-05-03T23:30:28.306Z,11.82
2023-05-03T23:32:55.897Z,12.10
2023-05-03T23:35:24.026Z,12.60
2023-05-03T23:37:51.551Z,12.63
2023-05-03T23:40:18.620Z,12.50
2023-05-03T23:42:47.144Z,12.26
2023-05-03T23:45:14.750Z,12.03
2023-05-03T23:47:41.859Z,11.79
2023-05-03T23:50:10.665Z,11.65
2023-05-03T23:52:37.857Z,11.54
2023-05-03T23:55:05.980Z,11.73
2023-05-03T23:57:33.478Z,12.08
